sensor_id;sensor_type;location;lat;lon;timestamp;pressure;altitude;pressure_sealevel;temperature;humidity
22605;BME280;11469;49.024;8.246;2024-02-23T00:02:17;98370.78;;;7.80;98.33
22605;BME280;11469;49.024;8.246;2024-02-23T00:04:42;98369.59;;;7.77;98.12
22605;BME280;11469;49.024;8.246;2024-02-23T00:07:07;98377.94;;;7.74;98.21
22605;BME280;11469;49.024;8.246;2024-02-23T00:09:33;98386.31;;;7.74;98.66
22605;BME280;11469;49.024;8.246;2024-02-23T00:11:59;98387.91;;;7.75;97.77
22605;BME280;11469;49.024;8.246;2024-02-23T00:14:24;98377.50;;;7.68;97.39
22605;BME280;11469;49.024;8.246;2024-02-23T00:16:49;98399.78;;;7.64;98.29
22605;BME280;11469;49.024;8.246;2024-02-23T00:19:15;98407.75;;;7.66;97.73
22605;BME280;11469;49.024;8.246;2024-02-23T00:21:43;98418.50;;;7.64;97.74
22605;BME280;11469;49.024;8.246;2024-02-23T00:24:12;98424.88;;;7.61;97.99
22605;BME280;11469;49.024;8.246;2024-02-23T00:26:38;98435.59;;;7.55;98.70
22605;BME280;11469;49.024;8.246;2024-02-23T00:29:03;98433.97;;;7.51;98.28
22605;BME280;11469;49.024;8.246;2024-02-23T00:31:29;98422.44;;;7.52;98.53
22605;BME280;11469;49.024;8.246;2024-02-23T00:33:54;98413.66;;;7.47;98.89
22605;BME280;11469;49.024;8.246;2024-02-23T00:36:20;98422.38;;;7.42;99.54
22605;BME280;11469;49.024;8.246;2024-02-23T00:38:45;98425.59;;;7.47;98.46
22605;BME280;11469;49.024;8.246;2024-02-23T00:41:10;98417.16;;;7.37;98.53
22605;BME280;11469;49.024;8.246;2024-02-23T00:43:39;98417.16;;;7.37;98.35
22605;BME280;11469;49.024;8.246;2024-02-23T00:46:05;98424.34;;;7.38;98.43
22605;BME280;11469;49.024;8.246;2024-02-23T00:48:30;98420.38;;;7.39;97.92
22605;BME280;11469;49.024;8.246;2024-02-23T00:50:56;98427.09;;;7.34;97.59
22605;BME280;11469;49.024;8.246;2024-02-23T00:53:21;98453.75;;;7.31;97.59
22605;BME280;11469;49.024;8.246;2024-02-23T00:55:47;98455.34;;;7.32;95.07
22605;BME280;11469;49.024;8.246;2024-02-23T00:58:12;98458.94;;;7.33;95.77
22605;BME280;11469;49.024;8.246;2024-02-23T01:00:38;98468.88;;;7.30;95.19
22605;BME280;11469;49.024;8.246;2024-02-23T01:03:03;98470.88;;;7.33;94.50
22605;BME280;11469;49.024;8.246;2024-02-23T01:05:29;98469.28;;;7.32;94.69
22605;BME280;11469;49.024;8.246;2024-02-23T01:07:54;98466.88;;;7.31;94.80
22605;BME280;11469;49.024;8.246;2024-02-23T01:10:20;98479.97;;;7.27;94.74
22605;BME280;11469;49.024;8.246;2024-02-23T01:12:45;98475.97;;;7.24;94.81
22605;BME280;11469;49.024;8.246;2024-02-23T01:15:10;98474.72;;;7.18;95.55
22605;BME280;11469;49.024;8.246;2024-02-23T01:17:36;98475.13;;;7.17;95.94
22605;BME280;11469;49.024;8.246;2024-02-23T01:20:02;98496.19;;;7.14;96.33
22605;BME280;11469;49.024;8.246;2024-02-23T01:22:28;98502.13;;;7.13;96.50
22605;BME280;11469;49.024;8.246;2024-02-23T01:24:53;98507.69;;;7.09;97.41
22605;BME280;11469;49.024;8.246;2024-02-23T01:27:19;98496.53;;;7.06;97.76
22605;BME280;11469;49.024;8.246;2024-02-23T01:29:44;98496.53;;;7.06;97.28
22605;BME280;11469;49.024;8.246;2024-02-23T01:32:09;98495.69;;;7.02;98.14
22605;BME280;11469;49.024;8.246;2024-02-23T01:34:35;98497.72;;;7.05;98.17
22605;BME280;11469;49.024;8.246;2024-02-23T01:37:00;98499.69;;;7.04;97.70
22605;BME280;11469;49.024;8.246;2024-02-23T01:39:26;98504.84;;;7.02;97.57
22605;BME280;11469;49.024;8.246;2024-02-23T01:41:51;98515.63;;;7.04;97.86
22605;BME280;11469;49.024;8.246;2024-02-23T01:44:16;98507.69;;;7.09;97.13
22605;BME280;11469;49.024;8.246;2024-02-23T01:46:43;98514.88;;;7.14;97.03
22605;BME280;11469;49.024;8.246;2024-02-23T01:49:09;98523.63;;;7.09;96.80
22605;BME280;11469;49.024;8.246;2024-02-23T01:51:35;98508.84;;;7.05;97.01
22605;BME280;11469;49.024;8.246;2024-02-23T01:54:01;98514.47;;;7.08;96.43
22605;BME280;11469;49.024;8.246;2024-02-23T01:56:27;98513.25;;;7.06;97.00
22605;BME280;11469;49.024;8.246;2024-02-23T01:58:52;98504.06;;;7.02;97.29
22605;BME280;11469;49.024;8.246;2024-02-23T02:01:19;98498.88;;;7.00;96.78
22605;BME280;11469;49.024;8.246;2024-02-23T02:03:44;98501.28;;;7.02;95.54
22605;BME280;11469;49.024;8.246;2024-02-23T02:06:11;98509.19;;;6.99;94.93
22605;BME280;11469;49.024;8.246;2024-02-23T02:08:38;98506.88;;;7.05;93.96
22605;BME280;11469;49.024;8.246;2024-02-23T02:11:03;98518.41;;;7.04;93.97
22605;BME280;11469;49.024;8.246;2024-02-23T02:13:29;98527.59;;;7.08;93.21
22605;BME280;11469;49.024;8.246;2024-02-23T02:15:55;98522.41;;;7.06;92.88
22605;BME280;11469;49.024;8.246;2024-02-23T02:18:21;98528.78;;;7.07;93.55
22605;BME280;11469;49.024;8.246;2024-02-23T02:20:56;98530.38;;;7.11;92.94
22605;BME280;11469;49.024;8.246;2024-02-23T02:23:23;98537.13;;;7.10;92.82
22605;BME280;11469;49.024;8.246;2024-02-23T02:26:06;98524.00;;;7.11;92.72
22605;BME280;11469;49.024;8.246;2024-02-23T02:28:32;98526.41;;;7.09;91.57
22605;BME280;11469;49.024;8.246;2024-02-23T02:30:57;98523.16;;;7.03;92.15
22605;BME280;11469;49.024;8.246;2024-02-23T02:33:23;98516.03;;;7.09;91.76
22605;BME280;11469;49.024;8.246;2024-02-23T02:35:48;98518.81;;;7.06;92.47
22605;BME280;11469;49.024;8.246;2024-02-23T02:38:15;98519.59;;;7.03;92.06
22605;BME280;11469;49.024;8.246;2024-02-23T02:40:40;98523.13;;;6.99;92.50
22605;BME280;11469;49.024;8.246;2024-02-23T02:43:06;98527.44;;;6.93;92.96
22605;BME280;11469;49.024;8.246;2024-02-23T02:45:32;98519.09;;;6.93;93.25
22605;BME280;11469;49.024;8.246;2024-02-23T02:47:59;98533.78;;;6.90;92.15
22605;BME280;11469;49.024;8.246;2024-02-23T02:50:25;98533.41;;;6.92;92.43
22605;BME280;11469;49.024;8.246;2024-02-23T02:52:50;98532.97;;;6.90;92.07
22605;BME280;11469;49.024;8.246;2024-02-23T02:55:16;98535.84;;;6.97;91.80
22605;BME280;11469;49.024;8.246;2024-02-23T02:57:41;98546.97;;;6.97;91.78
22605;BME280;11469;49.024;8.246;2024-02-23T03:00:09;98552.59;;;7.01;90.90
22605;BME280;11469;49.024;8.246;2024-02-23T03:02:35;98539.81;;;6.96;91.28
22605;BME280;11469;49.024;8.246;2024-02-23T03:05:00;98544.50;;;6.88;90.54
22605;BME280;11469;49.024;8.246;2024-02-23T03:07:26;98545.22;;;6.82;91.37
22605;BME280;11469;49.024;8.246;2024-02-23T03:09:51;98551.94;;;6.77;90.78
22605;BME280;11469;49.024;8.246;2024-02-23T03:12:17;98545.91;;;6.72;90.56
22605;BME280;11469;49.024;8.246;2024-02-23T03:14:43;98545.84;;;6.68;90.48
22605;BME280;11469;49.024;8.246;2024-02-23T03:17:09;98530.66;;;6.62;90.13
22605;BME280;11469;49.024;8.246;2024-02-23T03:19:37;98535.84;;;6.63;89.24
22605;BME280;11469;49.024;8.246;2024-02-23T03:22:03;98538.63;;;6.60;89.03
22605;BME280;11469;49.024;8.246;2024-02-23T03:24:29;98534.28;;;6.66;88.59
22605;BME280;11469;49.024;8.246;2024-02-23T03:26:54;98540.63;;;6.63;88.14
22605;BME280;11469;49.024;8.246;2024-02-23T03:29:21;98539.06;;;6.65;88.21
22605;BME280;11469;49.024;8.246;2024-02-23T03:31:51;98530.63;;;6.55;88.73
22605;BME280;11469;49.024;8.246;2024-02-23T03:34:16;98534.97;;;6.52;88.95
22605;BME280;11469;49.024;8.246;2024-02-23T03:36:42;98534.53;;;6.50;88.41
22605;BME280;11469;49.024;8.246;2024-02-23T03:39:08;98540.44;;;6.45;89.27
22605;BME280;11469;49.024;8.246;2024-02-23T03:41:33;98540.06;;;6.47;88.56
22605;BME280;11469;49.024;8.246;2024-02-23T03:43:58;98541.63;;;6.44;87.92
22605;BME280;11469;49.024;8.246;2024-02-23T03:46:24;98541.66;;;6.48;88.05
22605;BME280;11469;49.024;8.246;2024-02-23T03:48:49;98546.38;;;6.44;88.66
22605;BME280;11469;49.024;8.246;2024-02-23T03:51:15;98549.16;;;6.44;88.58
22605;BME280;11469;49.024;8.246;2024-02-23T03:53:41;98549.44;;;6.35;89.54
22605;BME280;11469;49.024;8.246;2024-02-23T03:56:06;98558.97;;;6.34;89.57
22605;BME280;11469;49.024;8.246;2024-02-23T03:58:32;98559.72;;;6.31;89.39
22605;BME280;11469;49.024;8.246;2024-02-23T04:00:57;98558.88;;;6.27;89.70
22605;BME280;11469;49.024;8.246;2024-02-23T04:03:23;98566.84;;;6.28;89.49
22605;BME280;11469;49.024;8.246;2024-02-23T04:05:48;98564.06;;;6.28;89.01
22605;BME280;11469;49.024;8.246;2024-02-23T04:08:13;98567.16;;;6.23;89.30
22605;BME280;11469;49.024;8.246;2024-02-23T04:10:39;98566.31;;;6.19;88.81
22605;BME280;11469;49.024;8.246;2024-02-23T04:13:04;98575.41;;;6.16;89.31
22605;BME280;11469;49.024;8.246;2024-02-23T04:15:29;98584.56;;;6.17;88.00
22605;BME280;11469;49.024;8.246;2024-02-23T04:17:55;98590.94;;;6.17;88.80
22605;BME280;11469;49.024;8.246;2024-02-23T04:20:20;98592.97;;;6.20;88.71
22605;BME280;11469;49.024;8.246;2024-02-23T04:22:45;98593.06;;;6.27;88.63
22605;BME280;11469;49.024;8.246;2024-02-23T04:25:11;98586.66;;;6.23;89.74
22605;BME280;11469;49.024;8.246;2024-02-23T04:27:37;98589.53;;;6.30;89.63
22605;BME280;11469;49.024;8.246;2024-02-23T04:30:03;98593.50;;;6.29;90.13
22605;BME280;11469;49.024;8.246;2024-02-23T04:32:29;98585.13;;;6.29;90.82
22605;BME280;11469;49.024;8.246;2024-02-23T04:34:55;98583.09;;;6.26;91.01
22605;BME280;11469;49.024;8.246;2024-02-23T04:37:20;98582.78;;;6.31;90.93
22605;BME280;11469;49.024;8.246;2024-02-23T04:39:46;98580.81;;;6.32;91.33
22605;BME280;11469;49.024;8.246;2024-02-23T04:42:11;98576.41;;;6.31;89.75
22605;BME280;11469;49.024;8.246;2024-02-23T04:44:37;98577.97;;;6.28;90.31
22605;BME280;11469;49.024;8.246;2024-02-23T04:47:02;98572.03;;;6.30;89.88
22605;BME280;11469;49.024;8.246;2024-02-23T04:49:28;98565.19;;;6.24;89.82
22605;BME280;11469;49.024;8.246;2024-02-23T04:51:54;98571.22;;;6.29;89.56
22605;BME280;11469;49.024;8.246;2024-02-23T04:54:19;98575.13;;;6.25;90.19
22605;BME280;11469;49.024;8.246;2024-02-23T04:56:45;98570.44;;;6.29;89.56
22605;BME280;11469;49.024;8.246;2024-02-23T04:59:10;98566.84;;;6.28;88.80
22605;BME280;11469;49.024;8.246;2024-02-23T05:01:36;98569.53;;;6.21;88.41
22605;BME280;11469;49.024;8.246;2024-02-23T05:04:02;98560.75;;;6.19;88.92
22605;BME280;11469;49.024;8.246;2024-02-23T05:06:29;98558.72;;;6.16;89.32
22605;BME280;11469;49.024;8.246;2024-02-23T05:08:54;98573.13;;;6.22;89.19
22605;BME280;11469;49.024;8.246;2024-02-23T05:11:20;98572.69;;;6.20;89.00
22605;BME280;11469;49.024;8.246;2024-02-23T05:13:45;98566.69;;;6.14;89.44
22605;BME280;11469;49.024;8.246;2024-02-23T05:16:10;98559.56;;;6.20;88.67
22605;BME280;11469;49.024;8.246;2024-02-23T05:18:38;98557.19;;;6.19;88.46
22605;BME280;11469;49.024;8.246;2024-02-23T05:21:04;98555.56;;;6.14;88.65
22605;BME280;11469;49.024;8.246;2024-02-23T05:23:29;98552.66;;;6.07;89.34
22605;BME280;11469;49.024;8.246;2024-02-23T05:25:54;98551.38;;;6.01;88.72
22605;BME280;11469;49.024;8.246;2024-02-23T05:28:20;98556.53;;;5.99;89.33
22605;BME280;11469;49.024;8.246;2024-02-23T05:30:45;98551.75;;;5.99;88.67
22605;BME280;11469;49.024;8.246;2024-02-23T05:33:10;98568.81;;;5.98;89.06
22605;BME280;11469;49.024;8.246;2024-02-23T05:35:36;98563.44;;;5.86;89.08
22605;BME280;11469;49.024;8.246;2024-02-23T05:38:02;98568.19;;;5.85;89.16
22605;BME280;11469;49.024;8.246;2024-02-23T05:40:27;98571.78;;;5.86;89.28
22605;BME280;11469;49.024;8.246;2024-02-23T05:42:53;98576.06;;;5.80;88.94
22605;BME280;11469;49.024;8.246;2024-02-23T05:45:19;98576.06;;;5.80;88.76
22605;BME280;11469;49.024;8.246;2024-02-23T05:47:45;98588.03;;;5.84;88.47
22605;BME280;11469;49.024;8.246;2024-02-23T05:50:10;98573.16;;;5.73;89.02
22605;BME280;11469;49.024;8.246;2024-02-23T05:52:36;98577.59;;;5.77;88.16
22605;BME280;11469;49.024;8.246;2024-02-23T05:55:02;98577.53;;;5.74;87.80
22605;BME280;11469;49.024;8.246;2024-02-23T05:57:29;98584.28;;;5.73;87.77
22605;BME280;11469;49.024;8.246;2024-02-23T05:59:54;98585.41;;;5.68;87.89
22605;BME280;11469;49.024;8.246;2024-02-23T06:02:21;98592.91;;;5.64;87.62
22605;BME280;11469;49.024;8.246;2024-02-23T06:04:46;98585.38;;;5.64;87.33
22605;BME280;11469;49.024;8.246;2024-02-23T06:07:13;98588.03;;;5.57;87.47
22605;BME280;11469;49.024;8.246;2024-02-23T06:09:38;98597.47;;;5.53;87.55
22605;BME280;11469;49.024;8.246;2024-02-23T06:12:05;98597.84;;;5.51;87.68
22605;BME280;11469;49.024;8.246;2024-02-23T06:14:30;98591.19;;;5.56;87.04
22605;BME280;11469;49.024;8.246;2024-02-23T06:16:56;98592.78;;;5.57;86.38
22605;BME280;11469;49.024;8.246;2024-02-23T06:19:21;98596.75;;;5.56;86.22
22605;BME280;11469;49.024;8.246;2024-02-23T06:21:49;98601.94;;;5.57;86.73
22605;BME280;11469;49.024;8.246;2024-02-23T06:24:16;98600.31;;;5.56;86.22
22605;BME280;11469;49.024;8.246;2024-02-23T06:26:42;98607.09;;;5.59;86.24
22605;BME280;11469;49.024;8.246;2024-02-23T06:29:07;98608.28;;;5.58;86.65
22605;BME280;11469;49.024;8.246;2024-02-23T06:31:36;98611.06;;;5.58;87.59
22605;BME280;11469;49.024;8.246;2024-02-23T06:34:03;98608.78;;;5.63;87.04
22605;BME280;11469;49.024;8.246;2024-02-23T06:36:29;98607.25;;;5.70;87.31
22605;BME280;11469;49.024;8.246;2024-02-23T06:38:54;98600.53;;;5.71;87.19
22605;BME280;11469;49.024;8.246;2024-02-23T06:41:19;98604.59;;;5.77;87.10
22605;BME280;11469;49.024;8.246;2024-02-23T06:43:45;98603.06;;;5.79;88.36
22605;BME280;11469;49.024;8.246;2024-02-23T06:46:10;98597.06;;;5.77;88.37
22605;BME280;11469;49.024;8.246;2024-02-23T06:48:36;98603.44;;;5.78;88.53
22605;BME280;11469;49.024;8.246;2024-02-23T06:51:03;98593.16;;;5.82;88.92
22605;BME280;11469;49.024;8.246;2024-02-23T06:53:29;98599.09;;;5.80;89.67
22605;BME280;11469;49.024;8.246;2024-02-23T06:55:54;98598.78;;;5.85;89.58
22605;BME280;11469;49.024;8.246;2024-02-23T06:58:20;98597.56;;;5.83;90.74
22605;BME280;11469;49.024;8.246;2024-02-23T07:00:45;98606.25;;;5.81;91.27
22605;BME280;11469;49.024;8.246;2024-02-23T07:03:11;98603.53;;;5.85;91.62
22605;BME280;11469;49.024;8.246;2024-02-23T07:05:37;98602.78;;;5.88;91.75
22605;BME280;11469;49.024;8.246;2024-02-23T07:08:02;98593.59;;;5.84;92.07
22605;BME280;11469;49.024;8.246;2024-02-23T07:10:28;98596.38;;;5.84;92.15
22605;BME280;11469;49.024;8.246;2024-02-23T07:12:53;98602.72;;;5.84;92.47
22605;BME280;11469;49.024;8.246;2024-02-23T07:15:20;98611.44;;;5.83;93.16
22605;BME280;11469;49.024;8.246;2024-02-23T07:17:45;98613.84;;;5.84;93.74
22605;BME280;11469;49.024;8.246;2024-02-23T07:20:11;98621.44;;;5.87;93.47
22605;BME280;11469;49.024;8.246;2024-02-23T07:22:36;98622.63;;;5.86;94.02
22605;BME280;11469;49.024;8.246;2024-02-23T07:25:02;98619.94;;;5.90;93.22
22605;BME280;11469;49.024;8.246;2024-02-23T07:27:29;98620.00;;;5.93;93.92
22605;BME280;11469;49.024;8.246;2024-02-23T07:29:55;98612.09;;;5.95;93.93
22605;BME280;11469;49.024;8.246;2024-02-23T07:32:20;98612.47;;;5.94;94.46
22605;BME280;11469;49.024;8.246;2024-02-23T07:34:46;98608.59;;;6.02;94.71
22605;BME280;11469;49.024;8.246;2024-02-23T07:37:11;98615.94;;;6.14;95.09
22605;BME280;11469;49.024;8.246;2024-02-23T07:39:37;98614.09;;;6.25;94.34
22605;BME280;11469;49.024;8.246;2024-02-23T07:42:03;98620.50;;;6.29;93.69
22605;BME280;11469;49.024;8.246;2024-02-23T07:44:28;98622.22;;;6.37;93.92
22605;BME280;11469;49.024;8.246;2024-02-23T07:46:54;98620.81;;;6.50;93.84
22605;BME280;11469;49.024;8.246;2024-02-23T07:49:21;98627.72;;;6.63;93.29
22605;BME280;11469;49.024;8.246;2024-02-23T07:51:47;98619.59;;;6.81;90.70
22605;BME280;11469;49.024;8.246;2024-02-23T07:54:13;98619.75;;;6.95;91.18
22605;BME280;11469;49.024;8.246;2024-02-23T07:56:38;98627.06;;;7.07;90.63
22605;BME280;11469;49.024;8.246;2024-02-23T07:59:04;98627.91;;;7.15;88.61
22605;BME280;11469;49.024;8.246;2024-02-23T08:01:29;98620.56;;;7.33;89.13
22605;BME280;11469;49.024;8.246;2024-02-23T08:03:55;98632.16;;;7.39;87.90
22605;BME280;11469;49.024;8.246;2024-02-23T08:06:21;98619.78;;;7.36;86.28
22605;BME280;11469;49.024;8.246;2024-02-23T08:08:46;98620.25;;;7.42;86.23
22605;BME280;11469;49.024;8.246;2024-02-23T08:11:12;98627.47;;;7.46;86.34
22605;BME280;11469;49.024;8.246;2024-02-23T08:13:39;98627.91;;;7.52;85.74
22605;BME280;11469;49.024;8.246;2024-02-23T08:16:06;98620.34;;;7.52;84.63
22605;BME280;11469;49.024;8.246;2024-02-23T08:18:31;98629.91;;;7.51;83.67
22605;BME280;11469;49.024;8.246;2024-02-23T08:20:58;98632.31;;;7.53;82.96
22605;BME280;11469;49.024;8.246;2024-02-23T08:23:23;98627.53;;;7.57;82.54
22605;BME280;11469;49.024;8.246;2024-02-23T08:25:49;98631.19;;;7.64;80.93
22605;BME280;11469;49.024;8.246;2024-02-23T08:28:16;98639.25;;;7.73;80.86
22605;BME280;11469;49.024;8.246;2024-02-23T08:30:41;98630.59;;;7.85;80.75
22605;BME280;11469;49.024;8.246;2024-02-23T08:33:07;98643.53;;;8.15;80.59
22605;BME280;11469;49.024;8.246;2024-02-23T08:35:35;98640.41;;;8.20;78.59
22605;BME280;11469;49.024;8.246;2024-02-23T08:38:00;98636.06;;;8.29;78.08
22605;BME280;11469;49.024;8.246;2024-02-23T08:40:26;98628.63;;;8.44;78.43
22605;BME280;11469;49.024;8.246;2024-02-23T08:42:51;98619.91;;;8.56;77.95
22605;BME280;11469;49.024;8.246;2024-02-23T08:45:17;98628.72;;;8.65;75.84
22605;BME280;11469;49.024;8.246;2024-02-23T08:47:43;98620.34;;;8.65;76.67
22605;BME280;11469;49.024;8.246;2024-02-23T08:50:08;98621.50;;;8.57;75.86
22605;BME280;11469;49.024;8.246;2024-02-23T08:52:34;98631.50;;;8.65;74.84
22605;BME280;11469;49.024;8.246;2024-02-23T08:54:59;98640.59;;;8.52;75.84
22605;BME280;11469;49.024;8.246;2024-02-23T08:57:28;98628.63;;;8.44;76.13
22605;BME280;11469;49.024;8.246;2024-02-23T08:59:54;98629.78;;;8.36;76.72
22605;BME280;11469;49.024;8.246;2024-02-23T09:02:23;98621.38;;;8.32;76.91
22605;BME280;11469;49.024;8.246;2024-02-23T09:04:49;98634.13;;;8.34;76.79
22605;BME280;11469;49.024;8.246;2024-02-23T09:07:14;98629.75;;;8.32;76.76
22605;BME280;11469;49.024;8.246;2024-02-23T09:09:40;98620.50;;;8.25;77.09
22605;BME280;11469;49.024;8.246;2024-02-23T09:12:09;98617.28;;;8.23;76.41
22605;BME280;11469;49.024;8.246;2024-02-23T09:14:36;98615.44;;;8.38;77.68
22605;BME280;11469;49.024;8.246;2024-02-23T09:17:04;98615.09;;;8.46;76.95
22605;BME280;11469;49.024;8.246;2024-02-23T09:19:31;98617.88;;;8.46;75.80
22605;BME280;11469;49.024;8.246;2024-02-23T09:21:58;98611.41;;;8.35;76.11
22605;BME280;11469;49.024;8.246;2024-02-23T09:24:26;98617.81;;;8.36;75.46
22605;BME280;11469;49.024;8.246;2024-02-23T09:26:52;98603.13;;;8.53;76.56
22605;BME280;11469;49.024;8.246;2024-02-23T09:29:18;98619.16;;;8.67;74.78
22605;BME280;11469;49.024;8.246;2024-02-23T09:31:44;98610.44;;;8.82;75.06
22605;BME280;11469;49.024;8.246;2024-02-23T09:34:11;98614.09;;;8.93;75.01
22605;BME280;11469;49.024;8.246;2024-02-23T09:36:36;98611.28;;;8.93;75.35
22605;BME280;11469;49.024;8.246;2024-02-23T09:39:02;98613.28;;;8.93;75.37
22605;BME280;11469;49.024;8.246;2024-02-23T09:41:30;98608.50;;;9.01;75.29
22605;BME280;11469;49.024;8.246;2024-02-23T09:43:59;98591.75;;;8.97;74.78
22605;BME280;11469;49.024;8.246;2024-02-23T09:46:25;98603.31;;;8.95;74.84
22605;BME280;11469;49.024;8.246;2024-02-23T09:48:51;98606.44;;;8.76;73.88
22605;BME280;11469;49.024;8.246;2024-02-23T09:51:17;98602.84;;;8.76;74.80
22605;BME280;11469;49.024;8.246;2024-02-23T09:53:43;98593.66;;;8.75;74.90
22605;BME280;11469;49.024;8.246;2024-02-23T09:56:10;98594.06;;;8.77;74.62
22605;BME280;11469;49.024;8.246;2024-02-23T09:58:36;98598.03;;;8.73;73.09
22605;BME280;11469;49.024;8.246;2024-02-23T10:01:03;98590.91;;;8.86;74.09
22605;BME280;11469;49.024;8.246;2024-02-23T10:03:30;98593.72;;;8.93;73.22
22605;BME280;11469;49.024;8.246;2024-02-23T10:05:57;98585.75;;;9.02;71.45
22605;BME280;11469;49.024;8.246;2024-02-23T10:08:23;98590.94;;;9.04;71.71
22605;BME280;11469;49.024;8.246;2024-02-23T10:10:48;98595.75;;;9.03;71.29
22605;BME280;11469;49.024;8.246;2024-02-23T10:13:20;98586.16;;;9.04;71.16
22605;BME280;11469;49.024;8.246;2024-02-23T10:15:47;98588.53;;;8.98;71.41
22605;BME280;11469;49.024;8.246;2024-02-23T10:18:12;98590.56;;;9.09;72.25
22605;BME280;11469;49.024;8.246;2024-02-23T10:20:39;98589.38;;;9.13;72.51
22605;BME280;11469;49.024;8.246;2024-02-23T10:23:05;98590.22;;;9.31;71.90
22605;BME280;11469;49.024;8.246;2024-02-23T10:25:33;98578.66;;;9.37;72.24
22605;BME280;11469;49.024;8.246;2024-02-23T10:27:58;98584.25;;;9.40;71.35
22605;BME280;11469;49.024;8.246;2024-02-23T10:30:26;98586.63;;;9.45;71.62
22605;BME280;11469;49.024;8.246;2024-02-23T10:32:55;98599.41;;;9.53;71.54
22605;BME280;11469;49.024;8.246;2024-02-23T10:35:21;98589.84;;;9.54;71.37
22605;BME280;11469;49.024;8.246;2024-02-23T10:37:48;98599.44;;;9.57;70.89
22605;BME280;11469;49.024;8.246;2024-02-23T10:40:20;98593.81;;;9.53;71.00
22605;BME280;11469;49.024;8.246;2024-02-23T10:42:48;98585.84;;;9.48;71.39
22605;BME280;11469;49.024;8.246;2024-02-23T10:45:17;98593.03;;;9.56;72.21
22605;BME280;11469;49.024;8.246;2024-02-23T10:47:43;98580.25;;;9.66;71.50
22605;BME280;11469;49.024;8.246;2024-02-23T10:50:09;98596.25;;;9.73;72.30
22605;BME280;11469;49.024;8.246;2024-02-23T10:52:35;98575.47;;;9.81;72.49
22605;BME280;11469;49.024;8.246;2024-02-23T10:55:01;98583.44;;;10.00;71.83
22605;BME280;11469;49.024;8.246;2024-02-23T10:57:34;98598.22;;;10.11;72.49
22605;BME280;11469;49.024;8.246;2024-02-23T11:00:00;98593.81;;;10.10;68.65
22605;BME280;11469;49.024;8.246;2024-02-23T11:02:27;98585.81;;;10.09;69.78
22605;BME280;11469;49.024;8.246;2024-02-23T11:04:55;98590.59;;;10.15;70.38
22605;BME280;11469;49.024;8.246;2024-02-23T11:07:22;98575.41;;;10.16;71.60
22605;BME280;11469;49.024;8.246;2024-02-23T11:09:54;98581.81;;;10.27;71.82
22605;BME280;11469;49.024;8.246;2024-02-23T11:12:29;98584.63;;;10.06;70.68
22605;BME280;11469;49.024;8.246;2024-02-23T11:14:58;98589.03;;;10.00;72.01
22605;BME280;11469;49.024;8.246;2024-02-23T11:17:32;98586.59;;;10.13;72.44
22605;BME280;11469;49.024;8.246;2024-02-23T11:19:58;98584.22;;;10.18;72.21
22605;BME280;11469;49.024;8.246;2024-02-23T11:22:24;98572.63;;;10.13;71.75
22605;BME280;11469;49.024;8.246;2024-02-23T11:24:51;98575.81;;;9.97;71.21
22605;BME280;11469;49.024;8.246;2024-02-23T11:27:16;98581.41;;;10.11;71.01
22605;BME280;11469;49.024;8.246;2024-02-23T11:29:45;98570.22;;;10.01;70.79
22605;BME280;11469;49.024;8.246;2024-02-23T11:32:17;98575.81;;;10.04;70.72
22605;BME280;11469;49.024;8.246;2024-02-23T11:34:55;98574.22;;;10.17;71.66
22605;BME280;11469;49.024;8.246;2024-02-23T11:37:23;98574.63;;;10.12;71.23
22605;BME280;11469;49.024;8.246;2024-02-23T11:39:53;98579.03;;;10.06;72.10
22605;BME280;11469;49.024;8.246;2024-02-23T11:42:19;98576.22;;;9.99;70.83
22605;BME280;11469;49.024;8.246;2024-02-23T11:44:45;98579.81;;;9.99;71.30
22605;BME280;11469;49.024;8.246;2024-02-23T11:47:10;98577.03;;;9.96;70.33
22605;BME280;11469;49.024;8.246;2024-02-23T11:49:35;98585.84;;;9.84;70.97
22605;BME280;11469;49.024;8.246;2024-02-23T11:52:01;98578.66;;;9.86;70.76
22605;BME280;11469;49.024;8.246;2024-02-23T11:54:27;98571.44;;;9.92;71.47
22605;BME280;11469;49.024;8.246;2024-02-23T11:56:52;98572.22;;;9.96;72.11
22605;BME280;11469;49.024;8.246;2024-02-23T11:59:19;98579.81;;;9.96;71.30
22605;BME280;11469;49.024;8.246;2024-02-23T12:01:46;98567.44;;;9.93;69.44
22605;BME280;11469;49.024;8.246;2024-02-23T12:04:11;98564.22;;;10.02;69.64
22605;BME280;11469;49.024;8.246;2024-02-23T12:06:37;98573.81;;;10.01;69.11
22605;BME280;11469;49.024;8.246;2024-02-23T12:09:02;98570.63;;;9.99;68.69
22605;BME280;11469;49.024;8.246;2024-02-23T12:11:29;98570.63;;;10.10;68.55
22605;BME280;11469;49.024;8.246;2024-02-23T12:13:55;98574.22;;;10.10;68.77
22605;BME280;11469;49.024;8.246;2024-02-23T12:16:21;98555.44;;;10.25;68.36
22605;BME280;11469;49.024;8.246;2024-02-23T12:18:53;98560.63;;;10.16;68.90
22605;BME280;11469;49.024;8.246;2024-02-23T12:21:18;98559.44;;;10.20;68.88
22605;BME280;11469;49.024;8.246;2024-02-23T12:23:45;98557.44;;;10.21;68.38
22605;BME280;11469;49.024;8.246;2024-02-23T12:26:15;98554.56;;;10.42;69.96
22605;BME280;11469;49.024;8.246;2024-02-23T12:28:41;98544.91;;;10.54;69.07
22605;BME280;11469;49.024;8.246;2024-02-23T12:31:07;98557.31;;;10.60;69.00
22605;BME280;11469;49.024;8.246;2024-02-23T12:33:34;98548.09;;;10.59;67.96
22605;BME280;11469;49.024;8.246;2024-02-23T12:36:00;98554.50;;;10.63;67.88
22605;BME280;11469;49.024;8.246;2024-02-23T12:38:27;98544.88;;;10.68;68.95
22605;BME280;11469;49.024;8.246;2024-02-23T12:40:52;98548.44;;;10.76;68.23
22605;BME280;11469;49.024;8.246;2024-02-23T12:43:18;98545.25;;;10.70;67.80
22605;BME280;11469;49.024;8.246;2024-02-23T12:45:49;98546.81;;;10.82;66.97
22605;BME280;11469;49.024;8.246;2024-02-23T12:48:15;98550.75;;;10.91;66.93
22605;BME280;11469;49.024;8.246;2024-02-23T12:50:41;98561.56;;;10.89;67.02
22605;BME280;11469;49.024;8.246;2024-02-23T12:53:08;98540.34;;;10.88;66.46
22605;BME280;11469;49.024;8.246;2024-02-23T12:55:33;98546.41;;;10.80;66.82
22605;BME280;11469;49.024;8.246;2024-02-23T12:57:59;98548.47;;;10.69;66.48
22605;BME280;11469;49.024;8.246;2024-02-23T13:00:24;98547.25;;;10.73;67.35
22605;BME280;11469;49.024;8.246;2024-02-23T13:02:50;98542.00;;;10.82;67.05
22605;BME280;11469;49.024;8.246;2024-02-23T13:05:15;98546.38;;;10.87;66.89